メインページ
METAR-TAF:

METAR-TAF

空港 :

アカプルコ, メキシコ

アカプルコ国際空港

緯度: 16-46N, 経度: 099-45W, 海抜: 5m

現時点の気象観測

当レポートは37分前の22:43(UTC)に作成
西の風 5kt
気温 31°C
湿度 71%
気圧 1008 hPa
視程: 12.9km
高度30000ftの雲はほとんどない

METAR: MMAA 272243Z 26005KT 8SM FEW300 31/25 A2978 RMK 8/002 HZY TCU N CU E

時間: 18:20 (23:20 UTC)

予報

当レポートは6時間5分前の17:15(UTC)に作成
予報は27日の 18時(UTC)から 28日の 24時(UTC)まで有効
南西の風 12kt
視程: 10km
高度2000ftの雲は散在している
高度25000ftの千切れ雲あり
確率 40%
28日の 00時(UTC)から 28日の 04時(UTC)まで
視程: 8.0km
高度2000ftの千切れ雲あり, 積乱雲.
激しい雷雨, 雨
28日の 0600時(UTC)から
の風 kt
視程: 10km
高度1500ftの雲は散在している
高度25000ftの千切れ雲あり
28日の 1800時(UTC)から
南西の風 10kt
視程: 10km
高度25000ftの千切れ雲あり

TAF: MMAA 271715Z 2718/2824 23012KT P6SM SCT020 BKN250 TX33/2719Z TN26/2812Z PROB40 2800/2804 5SM TSRA BKN020CB FM280600 00000KT P6SM SCT015 BKN250 FM281800 23010KT P6SM BKN250

4,000以上の空港の気象観測と天気予報(METAR報とTAF報)

利用可能な観測所は地図上に黄色い丸と赤い丸で示す。

丸の上にカーソルを重ねると観測所名を参照できる。

次にクリックすると気象観測と天気予報を参照できる。

マップの切り替え:黒色「×」印の緑ボタンをクリックして拡大、「-」印の緑ボタンをクリックして縮小、緑色の三角印をクリックして隣りの地図に切り替え


METAR-TAF: